< < Back
Terminal Aerodrome Forecast


Current Version              Previous Versions:   1  2  3  4  5  6  7  8  9  

Terminal Aerodrome Forecast

222
FTUS44 KBMX 021400 AAA
TAFTCL
TAF AMD
KTCL 021440Z 0215/0312 03005KT 5SM -SHRA BR OVC007=

Latest METAR

659
SAUS70 KWBC 021500 RRG
MTRTCL
METAR KTCL 021453Z 05005KT 1 3/4SM -RA BR OVC006 13/12 A3035 RMK AO2
RAB47 SLP277 P0001 60001 T01330117 53011


USA.gov is the U.S. government's official web portal to all federal, state and local government web resources and services.